Time;durP1;ratioP1;P1;durP2;ratioP2;P2;SDS_P1;SDS_P2;PMS_P1;PMS_P2;Temp;Humidity;BMP_temperature;BMP_pressure;BME280_temperature;BME280_humidity;BME280_pressure;Samples;Min_cycle;Max_cycle;Signal;HPM_P1;HPM_P2
2021/11/24 00:00:32;;;;;;;9.48;4.25;;;;;;;9.28;88.07;97662.25;5083383;28;20060;-67
2021/11/24 00:02:58;;;;;;;8.95;4.97;;;;;;;9.08;87.78;97576.38;5084924;28;20055;-67
2021/11/24 00:05:25;;;;;;;8.48;4.50;;;;;;;9.50;87.88;97632.13;5084867;28;20060;-68
2021/11/24 00:07:52;;;;;;;11.00;5.05;;;;;;;9.52;88.08;97631.78;5082992;28;20066;-68
2021/11/24 00:10:19;;;;;;;13.10;6.18;;;;;;;8.78;87.72;97516.19;5084638;28;20048;-68
2021/11/24 00:12:47;;;;;;;15.27;6.30;;;;;;;9.54;87.92;97638.59;5083369;28;20058;-67
2021/11/24 00:15:14;;;;;;;16.40;7.95;;;;;;;9.52;87.98;97646.44;5084678;28;20184;-68
2021/11/24 00:17:41;;;;;;;19.05;9.52;;;;;;;9.54;87.84;97643.31;5084677;28;20047;-67
2021/11/24 00:20:08;;;;;;;17.80;7.78;;;;;;;9.53;88.11;97645.25;5082870;28;20048;-68
2021/11/24 00:22:35;;;;;;;16.33;8.10;;;;;;;9.48;88.09;97645.53;5085430;28;20055;-68
2021/11/24 00:25:03;;;;;;;15.80;7.35;;;;;;;9.54;88.01;97648.84;5086866;28;20515;-68
2021/11/24 00:27:30;;;;;;;19.05;7.25;;;;;;;9.55;87.10;97651.25;5087126;28;20044;-68
2021/11/24 00:29:57;;;;;;;16.05;7.88;;;;;;;9.54;87.24;97657.97;5074496;28;20049;-67
2021/11/24 00:32:23;;;;;;;12.63;6.90;;;;;;;9.51;87.36;97650.38;5068482;28;20054;-68
2021/11/24 00:34:50;;;;;;;12.45;6.28;;;;;;;9.54;88.00;97648.84;5068272;28;20055;-67
2021/11/24 00:37:17;;;;;;;22.85;11.02;;;;;;;9.42;86.70;97619.25;5067727;28;20049;-67
2021/11/24 00:39:44;;;;;;;23.23;11.27;;;;;;;9.22;86.85;97614.69;5066979;28;20044;-67
2021/11/24 00:42:11;;;;;;;17.38;8.70;;;;;;;9.72;86.07;97647.44;5067792;28;20048;-68
2021/11/24 00:44:38;;;;;;;18.52;7.68;;;;;;;9.66;86.51;97652.38;5068214;28;20059;-67
2021/11/24 00:47:04;;;;;;;16.50;7.85;;;;;;;9.09;87.89;97583.50;5066201;28;20060;-68
2021/11/24 00:49:31;;;;;;;19.25;7.97;;;;;;;9.55;87.54;97645.72;5066896;28;20060;-67
2021/11/24 00:51:58;;;;;;;23.00;10.63;;;;;;;9.54;87.49;97644.13;5066717;28;20152;-68
2021/11/24 00:54:29;;;;;;;27.02;13.15;;;;;;;9.57;87.91;97637.91;5068035;28;20569;-67
2021/11/24 00:56:56;;;;;;;25.42;12.15;;;;;;;9.50;87.43;97642.41;5066313;28;20060;-67
2021/11/24 00:59:22;;;;;;;14.82;7.13;;;;;;;8.76;90.67;97595.81;5067627;28;20556;-68
2021/11/24 01:01:49;;;;;;;15.48;6.80;;;;;;;8.96;90.01;97603.22;5066308;28;20056;-68
2021/11/24 01:04:16;;;;;;;20.13;8.23;;;;;;;9.34;90.02;97645.09;5068089;28;20070;-67
2021/11/24 01:06:43;;;;;;;23.90;10.63;;;;;;;9.40;89.29;97646.47;5067036;28;20048;-67
2021/11/24 01:09:10;;;;;;;15.55;6.63;;;;;;;9.43;88.67;97644.94;5067587;28;20521;-68
2021/11/24 01:11:37;;;;;;;12.70;6.85;;;;;;;9.07;88.64;97623.69;5066914;28;20060;-67
2021/11/24 01:14:07;;;;;;;13.52;6.80;;;;;;;9.43;89.26;97651.28;5067387;28;20048;-68
2021/11/24 01:16:34;;;;;;;12.40;5.75;;;;;;;8.77;90.69;97597.47;5067290;28;20628;-67
2021/11/24 01:19:02;;;;;;;19.27;9.00;;;;;;;9.23;91.17;97648.66;5066362;28;20053;-67
2021/11/24 01:21:28;;;;;;;14.73;6.38;;;;;;;8.97;90.30;97613.09;5067516;28;20060;-66
2021/11/24 01:23:55;;;;;;;12.88;5.30;;;;;;;9.29;89.78;97648.09;5067227;28;20064;-67
2021/11/24 01:26:22;;;;;;;11.93;5.88;;;;;;;9.27;88.76;97655.91;5065686;28;20448;-67
2021/11/24 01:28:49;;;;;;;10.48;4.80;;;;;;;9.23;88.75;97652.25;5070135;28;20074;-67
2021/11/24 01:31:15;;;;;;;8.85;4.47;;;;;;;8.69;88.82;97556.94;5087407;28;20047;-67
2021/11/24 01:33:42;;;;;;;9.07;4.97;;;;;;;8.97;89.00;97613.09;5086733;28;20056;-68
2021/11/24 01:36:09;;;;;;;13.25;5.78;;;;;;;9.18;88.90;97652.47;5087235;28;20422;-68
2021/11/24 01:38:36;;;;;;;11.38;5.70;;;;;;;9.02;88.67;97615.63;5087442;28;20044;-68
2021/11/24 01:41:03;;;;;;;18.90;6.43;;;;;;;8.52;88.98;97535.09;5087297;28;20127;-67
2021/11/24 01:43:29;;;;;;;14.55;6.75;;;;;;;9.29;88.59;97653.63;5086911;28;20071;-68
2021/11/24 01:45:56;;;;;;;9.52;5.60;;;;;;;9.28;89.03;97646.47;5087153;28;20048;-66
2021/11/24 01:48:28;;;;;;;11.25;6.25;;;;;;;9.29;89.05;97652.81;5086957;28;20050;-67
2021/11/24 01:50:55;;;;;;;14.20;6.68;;;;;;;9.20;89.28;97634.38;5087120;28;20048;-68
2021/11/24 01:53:22;;;;;;;17.63;8.07;;;;;;;9.31;89.00;97640.22;5086919;28;20056;-68
2021/11/24 01:55:49;;;;;;;20.77;8.70;;;;;;;9.37;89.02;97649.94;5087037;28;20602;-67
2021/11/24 01:58:16;;;;;;;32.70;13.95;;;;;;;9.35;89.40;97663.28;5086878;28;20484;-68
2021/11/24 02:00:42;;;;;;;30.67;13.13;;;;;;;9.30;88.89;97622.03;5086974;28;20453;-68
2021/11/24 02:03:09;;;;;;;16.17;8.63;;;;;;;9.33;89.13;97632.41;5086237;28;20044;-68
2021/11/24 02:05:36;;;;;;;17.58;8.30;;;;;;;9.29;89.24;97608.56;5085386;28;20059;-68
2021/11/24 02:08:03;;;;;;;15.57;8.10;;;;;;;9.44;88.96;97644.59;5084822;28;20048;-67
2021/11/24 02:10:30;;;;;;;17.27;8.70;;;;;;;9.15;89.16;97614.47;5086700;28;20052;-68
2021/11/24 02:12:56;;;;;;;15.07;7.95;;;;;;;9.49;88.96;97652.66;5085072;28;20576;-68
2021/11/24 02:15:23;;;;;;;16.42;7.30;;;;;;;9.50;88.63;97643.19;5084933;28;20044;-68
2021/11/24 02:17:51;;;;;;;17.48;6.50;;;;;;;9.52;88.65;97646.44;5086082;28;20044;-68
2021/11/24 02:20:42;;;;;;;13.73;6.60;;;;;;;9.33;88.29;97609.47;5086728;28;20418;-67
2021/11/24 02:23:11;;;;;;;13.88;6.25;;;;;;;9.47;88.48;97654.97;5086028;28;20134;-67
2021/11/24 02:25:39;;;;;;;15.05;7.63;;;;;;;9.44;88.86;97650.13;5086475;28;20052;-68
2021/11/24 02:28:06;;;;;;;14.43;6.45;;;;;;;9.12;88.74;97604.91;5084446;28;20594;-68
2021/11/24 02:30:34;;;;;;;23.88;10.07;;;;;;;9.44;88.98;97652.91;5069269;28;20060;-67
2021/11/24 02:33:02;;;;;;;33.97;12.68;;;;;;;9.46;89.58;97653.34;5065612;28;20044;-68
2021/11/24 02:35:30;;;;;;;21.63;10.52;;;;;;;9.36;89.45;97648.28;5066235;28;20052;-68
2021/11/24 02:37:57;;;;;;;19.67;10.18;;;;;;;9.24;89.40;97623.44;5064232;28;20044;-69
2021/11/24 02:40:31;;;;;;;11.95;6.30;;;;;;;9.46;88.73;97653.34;5064528;28;20063;-67
2021/11/24 02:42:59;;;;;;;13.27;6.20;;;;;;;9.32;88.95;97630.00;5064410;28;20098;-67
2021/11/24 02:45:26;;;;;;;11.98;6.20;;;;;;;9.27;89.62;97655.91;5063291;28;20060;-66
2021/11/24 02:47:53;;;;;;;11.02;5.65;;;;;;;9.12;91.54;97654.66;5065323;28;20515;-68
2021/11/24 02:50:20;;;;;;;10.48;5.70;;;;;;;9.11;91.36;97642.00;5065782;28;20052;-67
2021/11/24 02:52:49;;;;;;;12.05;6.70;;;;;;;9.02;90.86;97618.41;5064990;28;20507;-67
2021/11/24 02:55:16;;;;;;;17.13;7.43;;;;;;;9.30;90.72;97643.34;5065777;28;20524;-66
2021/11/24 02:57:46;;;;;;;17.92;8.15;;;;;;;9.35;90.44;97656.94;5065722;28;20052;-67
2021/11/24 03:00:18;;;;;;;15.75;6.50;;;;;;;9.29;90.16;97664.69;5065641;28;20064;-67
2021/11/24 03:02:46;;;;;;;16.58;6.78;;;;;;;9.12;91.48;97664.88;5065350;28;20131;-68
2021/11/24 03:05:15;;;;;;;20.95;8.50;;;;;;;8.72;90.82;97578.34;5065533;28;20067;-67
2021/11/24 03:07:42;;;;;;;17.08;7.32;;;;;;;9.22;90.82;97664.44;5064056;28;20057;-66
2021/11/24 03:10:09;;;;;;;25.10;8.88;;;;;;;9.26;90.82;97670.91;5065824;28;20059;-67
2021/11/24 03:12:37;;;;;;;18.10;7.90;;;;;;;9.22;90.34;97667.19;5065254;28;20048;-67
2021/11/24 03:15:05;;;;;;;14.20;6.82;;;;;;;9.15;90.88;97672.53;5065495;28;20064;-68
2021/11/24 03:17:33;;;;;;;13.77;6.30;;;;;;;8.67;90.47;97586.84;5063673;28;20059;-66
2021/11/24 03:19:59;;;;;;;13.88;7.13;;;;;;;9.05;90.14;97648.91;5065202;28;20078;-67
2021/11/24 03:22:26;;;;;;;11.48;6.85;;;;;;;9.11;91.13;97679.88;5063153;28;20048;-67
2021/11/24 03:24:56;;;;;;;24.25;7.53;;;;;;;9.09;91.39;97682.16;5064960;28;20146;-66
2021/11/24 03:27:28;;;;;;;12.35;6.40;;;;;;;8.53;94.85;97686.59;5064403;28;20573;-66
2021/11/24 03:29:57;;;;;;;18.95;7.65;;;;;;;7.85;95.20;97542.97;5076659;28;20070;-67
2021/11/24 03:32:26;;;;;;;20.75;8.88;;;;;;;8.87;94.46;97685.38;5083273;28;20048;-67
2021/11/24 03:34:53;;;;;;;16.10;7.72;;;;;;;8.28;99.51;97700.66;5085142;28;20052;-67
2021/11/24 03:37:20;;;;;;;23.77;8.95;;;;;;;8.11;100.00;97695.28;5085123;28;20125;-65
2021/11/24 03:39:48;;;;;;;29.80;10.60;;;;;;;8.07;100.00;97699.84;5083676;28;20247;-67
2021/11/24 03:42:16;;;;;;;272.45;56.25;;;;;;;8.24;100.00;97700.53;5083301;28;20052;-67
2021/11/24 03:44:43;;;;;;;100.03;26.77;;;;;;;8.00;100.00;97650.72;5084545;28;20479;-68
2021/11/24 03:47:11;;;;;;;61.72;17.50;;;;;;;8.40;100.00;97697.94;5084775;28;20051;-67
2021/11/24 03:49:37;;;;;;;39.40;13.98;;;;;;;8.54;100.00;97706.72;5084531;28;20055;-67
2021/11/24 03:52:05;;;;;;;33.15;14.10;;;;;;;8.26;99.15;97661.53;5084525;28;20052;-67
2021/11/24 03:54:32;;;;;;;29.10;11.18;;;;;;;8.63;99.04;97710.22;5084943;28;20052;-67
2021/11/24 03:56:59;;;;;;;39.63;12.27;;;;;;;8.66;99.15;97706.75;5085051;28;20628;-67
2021/11/24 03:59:26;;;;;;;27.83;10.32;;;;;;;8.78;98.32;97715.06;5083404;28;20059;-67
2021/11/24 04:01:53;;;;;;;34.03;11.75;;;;;;;8.79;98.49;97711.97;5083032;28;20518;-67
2021/11/24 04:04:20;;;;;;;33.65;12.75;;;;;;;8.82;98.05;97716.00;5084492;28;20525;-67
2021/11/24 04:06:47;;;;;;;30.92;11.80;;;;;;;8.87;98.14;97713.00;5084192;28;20078;-67
2021/11/24 04:09:14;;;;;;;33.20;11.75;;;;;;;8.97;97.01;97712.56;5084354;28;20062;-67
2021/11/24 04:11:40;;;;;;;46.28;16.02;;;;;;;8.42;97.29;97626.63;5084753;28;20066;-68
2021/11/24 04:14:07;;;;;;;41.90;13.68;;;;;;;8.56;97.58;97655.53;5084164;28;20064;-66
2021/11/24 04:16:34;;;;;;;51.03;16.65;;;;;;;8.67;97.28;97666.94;5084070;28;20060;-67
2021/11/24 04:19:01;;;;;;;40.60;17.17;;;;;;;9.09;96.91;97723.63;5084670;28;20047;-67
2021/11/24 04:21:30;;;;;;;46.97;18.13;;;;;;;9.20;96.24;97728.34;5084263;28;20047;-66
2021/11/24 04:23:58;;;;;;;40.78;17.30;;;;;;;9.19;95.97;97725.94;5082941;28;20054;-66
2021/11/24 04:26:25;;;;;;;37.90;16.27;;;;;;;9.20;95.91;97733.06;5084530;28;20062;-67
2021/11/24 04:28:52;;;;;;;34.67;15.48;;;;;;;9.30;95.23;97742.88;5082115;28;20051;-68
2021/11/24 04:31:19;;;;;;;36.25;14.73;;;;;;;8.28;95.17;97579.22;5064657;28;20056;-67
2021/11/24 04:33:46;;;;;;;39.65;17.33;;;;;;;9.32;94.61;97730.34;5062630;28;20499;-66
2021/11/24 04:36:12;;;;;;;44.70;19.88;;;;;;;9.31;93.84;97750.81;5064299;28;20059;-67
2021/11/24 04:38:40;;;;;;;43.38;18.10;;;;;;;9.25;94.84;97746.69;5064032;28;20048;-67
2021/11/24 04:41:07;;;;;;;40.20;17.05;;;;;;;9.25;94.73;97746.69;5063665;28;20048;-67
2021/11/24 04:43:40;;;;;;;28.00;12.27;;;;;;;8.73;95.22;97668.31;5064021;28;20055;-67
2021/11/24 04:46:06;;;;;;;34.13;14.40;;;;;;;9.27;94.70;97760.97;5062985;28;20132;-68
2021/11/24 04:48:36;;;;;;;31.73;13.02;;;;;;;9.25;95.10;97757.72;5062718;28;20716;-66
2021/11/24 04:51:03;;;;;;;27.33;11.05;;;;;;;9.23;94.74;97754.53;5064439;28;20058;-67
2021/11/24 04:53:30;;;;;;;18.42;8.80;;;;;;;9.19;94.26;97756.34;5063909;28;20048;-67
2021/11/24 04:55:56;;;;;;;21.17;8.52;;;;;;;9.09;94.41;97737.44;5064317;28;20057;-67
2021/11/24 04:58:23;;;;;;;23.48;12.48;;;;;;;9.06;94.52;97763.00;5064076;28;20139;-67
2021/11/24 05:00:50;;;;;;;31.38;14.90;;;;;;;9.14;93.20;97764.84;5063844;28;20056;-68
2021/11/24 05:03:17;;;;;;;32.17;17.23;;;;;;;9.17;92.58;97769.69;5063503;28;20049;-68
2021/11/24 05:05:44;;;;;;;28.85;12.75;;;;;;;9.07;93.58;97770.16;5063949;28;20435;-68
2021/11/24 05:08:10;;;;;;;19.38;8.30;;;;;;;8.88;93.13;97775.41;5062193;28;20052;-68
2021/11/24 05:10:37;;;;;;;21.42;9.13;;;;;;;8.59;93.38;97728.59;5067594;28;20071;-68
2021/11/24 05:13:07;;;;;;;13.00;5.03;;;;;;;7.74;90.99;97606.81;5065866;28;20052;-68
2021/11/24 05:15:38;;;;;;;7.55;4.03;;;;;;;8.89;88.58;97793.59;5067312;28;20059;-68
2021/11/24 05:18:13;;;;;;;6.97;4.75;;;;;;;8.93;87.56;97789.00;5067172;28;20132;-68
2021/11/24 05:20:41;;;;;;;5.63;3.10;;;;;;;8.76;86.91;97751.31;5067311;28;20507;-68
2021/11/24 05:23:12;;;;;;;6.68;3.65;;;;;;;8.97;86.19;97789.94;5067141;28;20075;-68
2021/11/24 05:25:39;;;;;;;3.47;1.98;;;;;;;8.99;86.08;97793.16;5067420;28;20592;-67
2021/11/24 05:28:06;;;;;;;7.10;3.97;;;;;;;8.93;86.11;97800.06;5067298;28;20834;-67
2021/11/24 05:30:32;;;;;;;6.35;3.30;;;;;;;8.92;86.05;97795.66;5082874;28;20054;-68
2021/11/24 05:32:59;;;;;;;5.65;3.53;;;;;;;8.66;86.04;97745.44;5087433;28;20055;-66
2021/11/24 05:35:26;;;;;;;5.53;4.30;;;;;;;8.92;85.95;97803.97;5087091;28;20481;-66
2021/11/24 05:37:53;;;;;;;10.60;4.95;;;;;;;8.96;85.89;97804.91;5085629;28;20072;-67
2021/11/24 05:40:23;;;;;;;10.95;4.18;;;;;;;8.78;86.06;97787.69;5086991;28;20056;-67
2021/11/24 05:42:50;;;;;;;4.65;2.90;;;;;;;8.65;85.79;97758.41;5086953;28;20054;-67
2021/11/24 05:47:58;;;;;;;11.82;5.55;;;;;;;8.84;85.42;97791.03;5060090;28;20055;-67
2021/11/24 05:50:40;;;;;;;10.75;5.78;;;;;;;8.61;85.53;97764.97;5048022;28;20055;-67
2021/11/24 05:53:07;;;;;;;11.65;5.40;;;;;;;8.96;86.05;97821.50;5045056;28;20063;-67
2021/11/24 05:55:34;;;;;;;10.77;5.55;;;;;;;8.88;86.25;97825.13;5046552;28;20049;-66
2021/11/24 05:58:00;;;;;;;20.85;8.98;;;;;;;8.94;85.68;97832.06;5046817;28;20045;-68
2021/11/24 06:00:28;;;;;;;17.90;8.13;;;;;;;9.00;85.62;97833.47;5046383;28;20434;-67
2021/11/24 06:02:54;;;;;;;13.52;6.90;;;;;;;8.95;85.35;97825.38;5044965;28;20049;-67
2021/11/24 06:05:21;;;;;;;8.65;4.07;;;;;;;9.12;84.91;97836.25;5045125;28;20045;-67
2021/11/24 06:07:48;;;;;;;13.88;5.78;;;;;;;8.58;84.90;97738.03;5046347;28;20063;-67
2021/11/24 06:10:15;;;;;;;12.45;4.93;;;;;;;8.28;84.65;97686.84;5045114;28;20049;-67
2021/11/24 06:12:42;;;;;;;8.93;3.78;;;;;;;9.36;84.14;97850.13;5044873;28;20045;-68
2021/11/24 06:15:14;;;;;;;8.32;4.05;;;;;;;9.04;83.46;97809.53;5044791;28;20048;-68
2021/11/24 06:17:46;;;;;;;13.52;6.38;;;;;;;8.79;83.56;97756.16;5044814;28;20057;-68
2021/11/24 06:20:14;;;;;;;21.45;10.32;;;;;;;9.48;82.81;97855.69;5044878;28;20531;-67
2021/11/24 06:22:42;;;;;;;35.03;11.27;;;;;;;9.51;82.14;97860.53;5044561;28;20053;-68
2021/11/24 06:25:10;;;;;;;31.75;11.38;;;;;;;8.91;81.85;97752.63;5045545;28;20522;-68
2021/11/24 06:27:38;;;;;;;24.52;9.73;;;;;;;9.60;81.89;97869.53;5046121;28;20068;-67
2021/11/24 06:30:05;;;;;;;21.50;9.40;;;;;;;9.56;81.55;97852.03;5064708;28;20499;-67
2021/11/24 06:32:32;;;;;;;12.35;6.47;;;;;;;9.52;80.56;97834.50;5084892;28;20056;-67
2021/11/24 06:34:59;;;;;;;11.50;5.78;;;;;;;9.11;80.51;97765.53;5086928;28;20056;-67
2021/11/24 06:37:25;;;;;;;6.97;3.20;;;;;;;9.23;80.84;97799.53;5083127;28;20491;-67
2021/11/24 06:39:52;;;;;;;8.32;3.95;;;;;;;9.39;80.89;97813.50;5051519;28;20052;-63
2021/11/24 06:42:19;;;;;;;8.73;3.90;;;;;;;8.61;80.38;97682.94;5058850;28;20045;-61
2021/11/24 06:44:46;;;;;;;10.88;4.38;;;;;;;8.49;80.40;97657.22;5057094;28;20154;-66
2021/11/24 06:47:14;;;;;;;6.80;3.55;;;;;;;9.95;79.75;97890.09;5059264;28;20079;-68
2021/11/24 06:49:43;;;;;;;16.95;8.55;;;;;;;9.99;79.82;97879.94;5049159;28;20408;-63
2021/11/24 06:52:09;;;;;;;20.13;8.25;;;;;;;8.79;79.49;97706.44;5050905;28;20045;-66
2021/11/24 06:54:37;;;;;;;16.70;6.13;;;;;;;9.81;78.47;97848.13;5050233;28;20055;-69
2021/11/24 06:57:04;;;;;;;15.18;6.15;;;;;;;8.81;78.25;97722.66;5064339;28;20048;-61
2021/11/24 06:59:31;;;;;;;18.25;7.88;;;;;;;9.80;79.65;97890.75;5065876;28;20051;-64
2021/11/24 07:01:57;;;;;;;17.27;6.93;;;;;;;9.95;78.60;97892.84;5055617;28;20056;-65
2021/11/24 07:04:24;;;;;;;13.23;6.60;;;;;;;8.00;77.88;97611.31;5060080;28;20704;-62
2021/11/24 07:06:51;;;;;;;15.00;7.05;;;;;;;9.38;78.15;97825.72;5056433;28;20064;-61
2021/11/24 07:09:18;;;;;;;16.02;6.40;;;;;;;9.75;77.72;97904.84;5062250;28;20048;-65
2021/11/24 07:11:45;;;;;;;14.38;5.57;;;;;;;9.66;76.61;97895.03;5052310;28;20053;-65
2021/11/24 07:14:12;;;;;;;10.95;5.63;;;;;;;9.65;78.30;97899.75;5045123;28;20048;-63
2021/11/24 07:16:39;;;;;;;16.10;5.80;;;;;;;9.59;77.38;97873.47;5041662;28;20049;-62
2021/11/24 07:19:07;;;;;;;12.05;4.55;;;;;;;8.99;77.07;97788.44;5058126;28;20048;-61
2021/11/24 07:21:35;;;;;;;11.38;5.63;;;;;;;9.30;76.41;97823.84;5056672;28;20169;-59
2021/11/24 07:24:03;;;;;;;11.55;5.35;;;;;;;9.67;76.10;97891.91;5053375;28;20556;-61
2021/11/24 07:26:30;;;;;;;24.25;8.43;;;;;;;9.64;76.62;97898.09;5054489;28;20040;-59
2021/11/24 07:28:56;;;;;;;21.45;7.85;;;;;;;9.77;75.64;97902.53;5060690;28;20044;-58
2021/11/24 07:31:23;;;;;;;17.45;6.82;;;;;;;9.92;75.68;97899.09;5065104;28;20047;-62
2021/11/24 07:33:50;;;;;;;16.50;6.30;;;;;;;10.00;74.80;97900.94;5062232;28;20076;-64
2021/11/24 07:36:17;;;;;;;12.82;6.43;;;;;;;10.00;74.59;97906.47;5058245;28;20055;-65
2021/11/24 07:38:45;;;;;;;11.75;5.93;;;;;;;9.20;73.26;97777.28;5044149;28;20068;-64
2021/11/24 07:41:12;;;;;;;14.07;5.70;;;;;;;8.96;73.43;97749.66;5044627;28;20052;-63
2021/11/24 07:43:38;;;;;;;12.57;5.75;;;;;;;10.19;71.92;97903.16;5044527;28;20056;-59
2021/11/24 07:46:05;;;;;;;10.13;4.95;;;;;;;10.16;71.30;97904.63;5042510;28;20518;-60
2021/11/24 07:48:32;;;;;;;12.20;6.00;;;;;;;10.41;71.31;97903.50;5056973;28;20053;-63
2021/11/24 07:50:59;;;;;;;13.30;6.35;;;;;;;10.58;69.91;97910.72;5053444;28;20055;-62
2021/11/24 07:53:26;;;;;;;13.27;5.90;;;;;;;10.76;69.19;97917.63;5050289;28;20973;-62
2021/11/24 07:55:53;;;;;;;12.35;5.45;;;;;;;10.86;69.50;97910.78;5054671;28;20074;-64
2021/11/24 07:58:20;;;;;;;12.95;5.60;;;;;;;10.88;67.67;97914.00;5048777;28;20091;-62
2021/11/24 08:00:47;;;;;;;8.10;3.28;;;;;;;10.41;67.20;97906.25;5059762;28;20060;-62
2021/11/24 08:03:14;;;;;;;8.27;3.67;;;;;;;10.83;67.59;97906.72;5051426;28;20053;-62
2021/11/24 08:05:41;;;;;;;5.70;3.00;;;;;;;10.37;66.90;97827.78;5064249;28;20135;-66
2021/11/24 08:08:08;;;;;;;7.18;3.20;;;;;;;9.76;66.57;97762.56;5062685;28;20592;-65
2021/11/24 08:10:34;;;;;;;6.25;3.22;;;;;;;10.83;65.72;97928.13;5063094;28;20484;-60
2021/11/24 08:13:01;;;;;;;10.35;5.47;;;;;;;10.71;65.65;97884.59;5058753;28;20052;-63
2021/11/24 08:15:33;;;;;;;12.00;5.63;;;;;;;10.95;66.00;97908.66;5042903;28;20060;-64
2021/11/24 08:18:00;;;;;;;9.38;3.83;;;;;;;10.10;65.95;97856.19;5058673;28;20057;-68
2021/11/24 08:20:27;;;;;;;13.02;5.15;;;;;;;10.80;65.71;97862.28;5048613;28;20049;-71
2021/11/24 08:22:54;;;;;;;6.85;3.95;;;;;;;10.88;64.71;97883.50;5053898;28;20045;-64
2021/11/24 08:25:21;;;;;;;5.43;2.72;;;;;;;10.80;65.24;97917.69;5050976;28;20061;-60
2021/11/24 08:27:47;;;;;;;7.45;3.78;;;;;;;9.76;66.13;97757.03;5054262;28;20052;-64
2021/11/24 08:30:14;;;;;;;11.55;4.82;;;;;;;10.98;63.92;97916.28;5048561;28;20127;-62
2021/11/24 08:32:46;;;;;;;5.78;3.35;;;;;;;10.79;63.76;97871.75;5052525;28;20080;-62
2021/11/24 08:35:13;;;;;;;8.45;3.88;;;;;;;11.05;64.14;97919.28;5063854;28;20586;-61
2021/11/24 08:37:40;;;;;;;7.22;4.28;;;;;;;11.30;62.17;97909.69;5056449;28;20525;-61
2021/11/24 08:40:08;;;;;;;5.70;2.75;;;;;;;11.02;60.40;97876.41;5058330;28;20045;-66
2021/11/24 08:42:35;;;;;;;9.93;4.90;;;;;;;11.11;60.34;97895.66;5065386;28;20131;-64
2021/11/24 08:45:03;;;;;;;6.72;3.55;;;;;;;11.27;59.75;97915.94;5085630;28;20051;-64
2021/11/24 08:47:30;;;;;;;8.77;4.25;;;;;;;10.36;59.88;97776.31;5078226;28;20045;-67
2021/11/24 08:49:57;;;;;;;7.85;3.65;;;;;;;11.56;58.51;97908.03;5047567;28;20504;-61
2021/11/24 08:52:24;;;;;;;4.85;2.47;;;;;;;11.21;58.30;97867.41;5046075;28;20155;-62
2021/11/24 08:54:51;;;;;;;7.00;3.30;;;;;;;10.88;59.66;97803.94;5049448;28;20128;-64
2021/11/24 08:57:18;;;;;;;14.32;5.13;;;;;;;11.56;59.77;97901.69;5066127;28;20055;-61
2021/11/24 08:59:44;;;;;;;10.05;3.63;;;;;;;11.57;59.30;97897.75;5080579;28;20521;-65
2021/11/24 09:02:11;;;;;;;8.38;4.40;;;;;;;11.64;58.90;97903.50;5067425;28;20051;-64
2021/11/24 09:04:39;;;;;;;5.65;3.72;;;;;;;11.66;58.32;97890.09;5065604;28;20048;-67
2021/11/24 09:07:07;;;;;;;9.65;4.93;;;;;;;11.50;58.36;97850.38;5067183;28;20076;-62
2021/11/24 09:09:35;;;;;;;10.82;4.53;;;;;;;11.16;59.06;97812.22;5065613;28;20079;-65
2021/11/24 09:12:02;;;;;;;11.27;4.80;;;;;;;11.92;58.68;97882.03;5054820;28;20060;-64
2021/11/24 09:14:28;;;;;;;6.40;3.65;;;;;;;11.82;57.70;97877.81;5053167;28;20115;-63
2021/11/24 09:17:10;;;;;;;9.00;4.15;;;;;;;12.07;57.37;97893.16;5046531;28;20459;-65
2021/11/24 09:19:38;;;;;;;8.75;4.30;;;;;;;11.94;58.03;97886.06;5056064;28;20234;-66
2021/11/24 09:22:26;;;;;;;6.38;3.30;;;;;;;11.42;57.57;97818.88;5062132;28;20048;-66
2021/11/24 09:24:56;;;;;;;8.55;3.80;;;;;;;11.27;57.92;97799.47;5052627;28;20136;-62
2021/11/24 09:27:44;;;;;;;13.60;5.15;;;;;;;8.74;57.06;97382.72;5051179;28;20045;-63
2021/11/24 09:30:13;;;;;;;6.53;3.88;;;;;;;12.39;55.81;97891.16;5050486;28;20049;-68
2021/11/24 09:32:41;;;;;;;7.40;3.10;;;;;;;12.46;56.10;97871.84;5051183;28;20056;-65
2021/11/24 09:35:09;;;;;;;6.45;3.30;;;;;;;11.96;55.77;97763.53;5063605;28;20044;-64
2021/11/24 09:37:36;;;;;;;6.43;3.03;;;;;;;12.06;54.42;97755.44;5060414;28;20129;-68
2021/11/24 09:40:05;;;;;;;6.20;3.33;;;;;;;11.57;56.57;97803.41;5064886;28;20426;-64
2021/11/24 09:42:35;;;;;;;11.57;5.05;;;;;;;9.72;56.96;97518.19;5066347;28;20056;-64
2021/11/24 09:45:04;;;;;;;5.88;3.08;;;;;;;11.97;56.81;97874.25;5065055;28;20059;-61
2021/11/24 09:47:36;;;;;;;8.30;4.70;;;;;;;11.15;57.24;97755.97;5064421;28;20519;-62
2021/11/24 09:50:06;;;;;;;6.72;3.72;;;;;;;11.37;57.33;97783.09;5066013;28;20422;-72
2021/11/24 09:52:34;;;;;;;7.72;4.05;;;;;;;11.60;57.87;97838.75;5065240;28;20563;-65
2021/11/24 09:55:01;;;;;;;11.90;4.80;;;;;;;11.59;58.01;97839.91;5061047;28;20483;-72
2021/11/24 09:57:28;;;;;;;3.75;2.45;;;;;;;11.00;57.50;97775.34;5046406;28;20045;-64
2021/11/24 09:59:55;;;;;;;10.40;3.90;;;;;;;11.58;58.09;97875.19;5059268;28;20044;-63
2021/11/24 10:02:22;;;;;;;8.55;3.80;;;;;;;10.86;58.54;97767.44;5065191;28;20060;-70
2021/11/24 10:04:50;;;;;;;8.10;3.50;;;;;;;11.12;58.23;97789.13;5044233;28;20110;-67
2021/11/24 10:07:19;;;;;;;14.13;5.45;;;;;;;11.36;58.25;97836.13;5059773;28;20052;-61
2021/11/24 10:09:46;;;;;;;19.83;11.18;;;;;;;11.78;57.19;97870.56;5059172;28;20052;-62
2021/11/24 10:12:14;;;;;;;9.43;4.38;;;;;;;11.66;56.98;97845.69;5062044;28;20052;-64
2021/11/24 10:14:42;;;;;;;10.85;4.93;;;;;;;11.71;56.88;97875.97;5062311;28;20044;-64
2021/11/24 10:17:15;;;;;;;12.35;5.35;;;;;;;11.44;58.35;97877.59;5065549;28;20049;-63
2021/11/24 10:20:03;;;;;;;11.32;5.20;;;;;;;11.56;56.81;97868.38;5056361;28;20045;-66
2021/11/24 10:22:31;;;;;;;7.30;4.10;;;;;;;9.71;56.12;97557.28;5052585;28;20068;-65
2021/11/24 10:25:07;;;;;;;17.98;6.93;;;;;;;11.72;57.60;97863.69;5052733;28;20091;-62
2021/11/24 10:27:48;;;;;;;18.50;7.38;;;;;;;11.61;57.64;97860.59;5054040;28;20068;-63
2021/11/24 10:30:30;;;;;;;12.00;5.38;;;;;;;11.65;57.45;97866.28;5053045;28;20049;-62
2021/11/24 10:33:19;;;;;;;7.45;4.38;;;;;;;11.25;57.56;97871.09;5051697;28;20056;-61
2021/11/24 10:36:05;;;;;;;17.42;8.13;;;;;;;10.98;57.88;97846.97;5059232;28;20053;-60
2021/11/24 10:38:44;;;;;;;21.30;7.63;;;;;;;11.16;58.42;97864.91;5044177;28;20136;-69
2021/11/24 10:41:12;;;;;;;12.05;4.95;;;;;;;11.17;57.29;97867.34;5047120;28;20578;-63
2021/11/24 10:43:45;;;;;;;10.45;4.95;;;;;;;11.21;57.61;97861.88;5051749;28;20442;-62
2021/11/24 10:46:16;;;;;;;11.83;4.93;;;;;;;11.07;57.27;97862.28;5073246;28;20059;-71
2021/11/24 10:48:44;;;;;;;10.18;5.28;;;;;;;10.81;56.93;97808.47;5057057;28;20052;-63
2021/11/24 10:51:32;;;;;;;8.45;3.50;;;;;;;11.04;56.97;97859.41;5060267;28;20378;-63
2021/11/24 10:54:17;;;;;;;7.22;3.60;;;;;;;10.98;56.37;97863.59;5055789;28;20076;-66
2021/11/24 10:57:04;;;;;;;9.90;3.85;;;;;;;11.10;56.90;97858.00;5046228;28;20675;-72
2021/11/24 10:59:37;;;;;;;8.27;4.30;;;;;;;10.84;56.17;97852.13;5057310;28;20467;-64
2021/11/24 11:02:18;;;;;;;7.28;3.03;;;;;;;10.88;56.14;97864.09;5061913;28;20040;-73
2021/11/24 11:05:11;;;;;;;16.58;4.07;;;;;;;10.95;56.76;97854.03;5062328;28;20055;-62
2021/11/24 11:07:56;;;;;;;16.00;6.20;;;;;;;10.63;56.17;97770.00;5044310;28;20139;-66
2021/11/24 11:10:29;;;;;;;14.05;7.20;;;;;;;11.14;55.65;97856.16;5044792;28;20060;-65
2021/11/24 11:13:07;;;;;;;10.88;5.82;;;;;;;10.90;55.53;97822.97;5043619;28;20140;-65
2021/11/24 11:15:38;;;;;;;8.77;4.47;;;;;;;11.08;55.73;97846.47;5044855;28;20088;-69
2021/11/24 11:18:10;;;;;;;11.13;5.18;;;;;;;10.99;55.83;97843.84;5044783;28;20528;-68
2021/11/24 11:20:48;;;;;;;16.73;8.20;;;;;;;10.79;55.76;97799.69;5044929;28;20063;-69
2021/11/24 11:23:21;;;;;;;29.77;16.00;;;;;;;11.16;55.42;97842.75;5042819;28;20542;-69
2021/11/24 11:26:03;;;;;;;16.85;8.93;;;;;;;10.85;55.57;97801.88;5042534;28;20053;-69
2021/11/24 11:28:34;;;;;;;18.02;9.50;;;;;;;10.99;54.72;97824.44;5044681;28;20075;-69
2021/11/24 11:31:03;;;;;;;16.42;8.05;;;;;;;10.69;55.64;97812.09;5050188;28;20048;-65
2021/11/24 11:33:33;;;;;;;18.30;8.57;;;;;;;11.08;55.41;97846.47;5052995;28;20057;-63
2021/11/24 11:36:04;;;;;;;12.80;6.55;;;;;;;11.11;55.04;97845.75;5052417;28;20055;-67
2021/11/24 11:38:31;;;;;;;14.82;5.78;;;;;;;11.27;54.66;97849.38;5050356;28;20080;-62
2021/11/24 11:41:00;;;;;;;16.30;6.68;;;;;;;10.89;54.64;97786.13;5052200;28;20053;-61